Latest Weather Observations for Warrnambool

IDV60801

Issued at 1:02 pm EST Sunday 30 August 2015 (issued every 30 minutes, with the page automatically refreshed every 10 minutes)

About weather observations | Map of weather stations | Latest weather observations for VIC | Other Formats
Station Details ID: 090186 Name: WARRNAMBOOL AIRPORT NDB Lat: -38.29 Lon: 142.45 Height: 70.8 m
Data from the previous 72 hours. | See also: Recent months at Warrnambool
Date/Time
EST
Temp
°C
App
Temp
°C
Dew
Point
Rel
Hum
%
Delta-T
°C
Wind Press
QNH
hPa
Press
MSL
hPa
Rain
since 9 am
mm
Dir
 
Spd
km/h
Gust
km/h
Spd
kts
Gust
kts
30/01:00pm 10.5 6.8 7.9 84 1.3 SSE 17 24 9 13 1025.4 1025.5 0.2
30/12:30pm 10.4 6.2 7.6 83 1.3 SSW 19 24 10 13 1025.7 1025.8 0.2
30/12:00pm 9.6 6.5 8.8 95 0.4 SSW 15 20 8 11 1026.3 1026.4 0.2
30/11:30am 9.9 6.5 9.3 96 0.3 S 17 20 9 11 1026.6 1026.8 0.2
30/11:00am 10.0 6.3 7.9 87 1.0 SSW 17 20 9 11 1026.8 1027.0 0.2
30/10:30am 9.6 4.5 7.7 88 0.9 SSE 24 33 13 18 1027.0 1027.2 0.2
30/10:04am 9.4 6.4 9.3 99 0.0 S 15 20 8 11 1027.1 1027.3 0.2
30/10:00am 9.3 5.5 9.2 99 0.0 S 19 22 10 12 1027.1 1027.3 0.2
30/09:45am 8.9 4.8 8.8 99 0.0 SSE 20 26 11 14 1027.2 1027.4 0.2
30/09:30am 9.1 5.7 9.0 99 0.0 S 17 20 9 11 1027.1 1027.3 0.0
30/09:00am 9.1 3.9 9.0 99 0.0 S 26 35 14 19 1027.1 1027.3 2.8
30/08:30am 8.7 5.9 8.6 99 0.0 SE 13 19 7 10 1027.2 1027.4 2.8
30/08:00am 8.7 4.8 8.7 100 0.0 SSW 19 24 10 13 1027.1 1027.3 2.8
30/07:30am 8.0 5.8 8.0 100 0.0 S 9 11 5 6 1026.9 1027.1 2.8
30/07:00am 7.9 4.9 7.9 100 0.0 SSE 13 17 7 9 1026.6 1026.8 2.8
30/06:30am 8.3 4.3 8.2 99 0.0 S 19 24 10 13 1026.3 1026.4 2.8
30/06:00am 7.8 4.8 7.8 100 0.0 SSW 13 13 7 7 1026.1 1026.2 2.8
30/05:30am 8.1 4.4 8.1 100 0.0 SSW 17 20 9 11 1026.1 1026.2 2.8
30/05:00am 7.8 5.2 7.8 100 0.0 SSW 11 15 6 8 1025.9 1026.0 2.8
30/04:30am 8.1 4.4 8.1 100 0.0 S 17 26 9 14 1025.9 1026.0 2.8
30/04:21am 8.0 4.3 8.0 100 0.0 S 17 22 9 12 1025.9 1026.0 2.8
30/04:10am 8.0 3.9 8.0 100 0.0 S 19 22 10 12 1026.0 1026.1 2.8
30/04:00am 7.9 4.9 7.9 100 0.0 S 13 17 7 9 1026.1 1026.2 2.8
30/03:46am 8.0 5.1 8.0 100 0.0 S 13 17 7 9 1026.2 1026.3 2.8
30/03:30am 8.0 3.7 8.0 100 0.0 S 20 28 11 15 1026.4 1026.5 2.8
30/03:29am 8.0 3.9 8.0 100 0.0 S 19 28 10 15 1026.4 1026.5 2.8
30/03:00am 7.0 4.2 7.0 100 0.0 S 11 13 6 7 1026.6 1026.8 2.8
30/02:30am 8.3 5.1 8.3 100 0.0 SSE 15 28 8 15 1026.9 1027.1 2.8
30/02:00am 8.4 5.5 8.3 99 0.0 SSW 13 17 7 9 1027.1 1027.3 2.8
30/01:30am 8.5 5.3 8.4 99 0.0 S 15 19 8 10 1027.5 1027.6 2.8
30/01:00am 8.8 5.3 8.7 99 0.0 S 17 22 9 12 1027.3 1027.5 2.8
30/12:30am 8.8 4.9 8.7 99 0.0 SSE 19 26 10 14 1027.3 1027.5 2.8
30/12:00am 8.4 4.8 8.4 100 0.0 SSE 17 20 9 11 1027.3 1027.5 2.8
 
Date/Time
EST
Temp
°C
App
Temp
°C
Dew
Point
Rel
Hum
%
Delta-T
°C
Wind Press
QNH
hPa
Press
MSL
hPa
Rain
since 9 am
mm
Dir
 
Spd
km/h
Gust
km/h
Spd
kts
Gust
kts
29/11:30pm 8.5 4.6 8.5 100 0.0 S 19 26 10 14 1027.7 1027.8 2.8
29/11:00pm 8.2 4.2 8.2 100 0.0 S 19 24 10 13 1027.8 1027.9 2.6
29/10:41pm 7.9 4.2 7.9 100 0.0 S 17 20 9 11 1027.9 1028.0 2.4
29/10:30pm 8.3 3.7 8.3 100 0.0 S 22 32 12 17 1027.9 1028.0 2.4
29/10:14pm 8.5 4.6 8.5 100 0.0 SSW 19 26 10 14 1028.2 1028.3 2.4
29/10:01pm 8.1 4.8 8.1 100 0.0 S 15 22 8 12 1028.2 1028.3 2.4
29/10:00pm 8.1 4.4 8.1 100 0.0 S 17 22 9 12 1028.2 1028.3 2.4
29/09:57pm 8.3 4.7 8.3 100 0.0 SSE 17 24 9 13 1028.2 1028.3 2.4
29/09:49pm 8.6 4.7 8.6 100 0.0 SSE 19 24 10 13 1028.4 1028.5 2.4
29/09:30pm 8.4 4.4 8.4 100 0.0 SSW 19 26 10 14 1028.4 1028.5 2.2
29/09:10pm 8.5 4.9 8.5 100 0.0 S 17 24 9 13 1028.4 1028.5 2.0
29/09:07pm 8.2 4.6 8.2 100 0.0 S 17 20 9 11 1028.4 1028.5 1.8
29/09:00pm 7.9 3.8 7.9 100 0.0 S 19 24 10 13 1028.3 1028.4 1.8
29/08:36pm 8.4 4.4 8.4 100 0.0 S 19 32 10 17 1028.2 1028.3 1.6
29/08:32pm 8.3 5.1 8.3 100 0.0 SSW 15 24 8 13 1028.3 1028.4 1.4
29/08:30pm 8.2 4.9 8.2 100 0.0 SSW 15 20 8 11 1028.2 1028.3 1.4
29/08:23pm 8.1 4.1 8.1 100 0.0 S 19 24 10 13 1028.2 1028.3 1.4
29/08:13pm 8.4 4.2 8.4 100 0.0 S 20 30 11 16 1028.3 1028.4 1.4
29/08:10pm 8.4 4.4 8.4 100 0.0 SSW 19 30 10 16 1028.2 1028.3 1.2
29/08:00pm 7.9 3.6 7.9 100 0.0 SSW 20 26 11 14 1028.2 1028.3 1.2
29/07:55pm 8.0 3.4 8.0 100 0.0 SSW 22 28 12 15 1028.2 1028.3 1.2
29/07:34pm 8.3 4.7 8.3 100 0.0 S 17 28 9 15 1028.2 1028.3 1.2
29/07:30pm 8.2 4.9 8.2 100 0.0 SSW 15 19 8 10 1028.2 1028.3 1.2
29/07:24pm 8.0 4.3 8.0 100 0.0 SSW 17 22 9 12 1028.1 1028.2 1.2
29/07:00pm 8.4 3.9 8.4 100 0.0 S 22 28 12 15 1028.3 1028.4 1.0
29/06:53pm 8.6 4.1 8.5 99 0.0 S 22 28 12 15 1028.3 1028.4 0.8
29/06:30pm 8.6 4.3 7.7 94 0.4 SSW 20 24 11 13 1028.0 1028.1 0.6
29/06:00pm 8.7 4.0 7.6 93 0.5 S 22 32 12 17 1028.0 1028.1 0.6
29/05:30pm 9.4 3.5 7.3 87 1.0 SSW 28 35 15 19 1027.9 1028.0 0.6
29/05:00pm 9.5 3.9 7.3 86 1.0 S 26 33 14 18 1027.7 1027.8 0.6
29/04:30pm 9.2 4.6 8.0 92 0.6 S 22 30 12 16 1027.7 1027.8 0.6
29/04:00pm 10.3 6.6 9.5 95 0.4 SSW 19 30 10 16 1027.7 1027.8 0.6
29/03:45pm 9.4 5.7 9.3 99 0.0 S 19 22 10 12 1027.9 1028.0 0.6
29/03:30pm 8.5 2.8 8.4 99 0.0 SSE 28 41 15 22 1028.0 1028.1 0.6
29/03:25pm 8.6 2.6 8.5 99 0.0 S 30 41 16 22 1028.0 1028.1 0.4
29/03:00pm 9.8 3.6 7.9 88 0.9 SSW 30 39 16 21 1027.9 1028.0 0.4
29/02:41pm 9.5 4.8 9.4 99 0.0 SSW 24 32 13 17 1028.0 1028.1 0.4
29/02:30pm 9.0 3.1 8.9 99 0.0 SSW 30 41 16 22 1028.0 1028.1 0.4
29/02:27pm 8.9 2.9 8.6 98 0.1 SSW 30 41 16 22 1028.0 1028.1 0.4
29/02:00pm 10.1 4.4 8.2 88 0.9 SSW 28 35 15 19 1028.1 1028.2 0.4
29/01:30pm 9.7 4.0 8.5 92 0.6 SSW 28 35 15 19 1028.3 1028.4 0.4
29/01:10pm 8.6 4.7 8.5 99 0.0 SSW 19 28 10 15 1028.6 1028.7 0.2
29/01:00pm 8.7 4.6 8.6 99 0.0 S 20 30 11 16 1028.8 1028.9 0.2
29/12:49pm 8.3 1.4 7.1 92 0.6 S 33 43 18 23 1028.9 1029.0 0.0
29/12:30pm 10.6 5.3 6.6 76 1.9 S 24 30 13 16 1029.0 1029.1 0.0
29/12:00pm 9.2 2.6 6.1 81 1.4 S 30 43 16 23 1029.4 1029.5 0.0
29/11:30am 9.8 3.5 5.6 75 1.9 SSW 28 35 15 19 1029.3 1029.4 0.0
29/11:00am 9.9 3.6 5.5 74 2.0 SSW 28 37 15 20 1029.5 1029.6 0.0
29/10:30am 10.2 3.3 6.5 78 1.7 SSW 32 43 17 23 1029.5 1029.6 0.0
29/10:00am 9.8 4.2 5.4 74 2.0 SSW 24 32 13 17 1029.4 1029.5 0.0
29/09:30am 8.9 2.0 4.5 74 2.0 S 30 39 16 21 1029.5 1029.6 0.0
29/09:00am 9.0 3.5 4.2 72 2.1 SSW 22 30 12 16 1029.6 1029.7 1.2
29/08:30am 8.2 3.1 3.3 71 2.1 S 19 26 10 14 1029.4 1029.5 1.2
29/08:00am 7.4 2.6 2.5 71 2.0 S 17 20 9 11 1029.3 1029.4 1.2
29/07:30am 7.3 2.2 3.0 74 1.8 S 19 26 10 14 1029.1 1029.2 1.2
29/07:00am 5.8 1.3 1.9 76 1.6 S 15 19 8 10 1028.8 1028.9 1.2
29/06:30am 6.1 0.8 1.6 73 1.8 S 19 26 10 14 1028.6 1028.7 1.2
29/06:00am 6.6 1.9 2.9 77 1.5 SSW 17 20 9 11 1028.5 1028.6 1.2
29/05:30am 6.9 2.3 1.8 70 2.1 SSE 15 19 8 10 1028.4 1028.5 1.2
29/05:00am 6.8 2.7 2.3 73 1.8 SSE 13 17 7 9 1028.4 1028.5 1.2
29/04:30am 6.3 1.7 1.8 73 1.8 SSE 15 19 8 10 1028.3 1028.4 1.2
29/04:00am 5.8 2.8 2.1 77 1.5 SSE 7 13 4 7 1028.2 1028.3 1.2
29/03:30am 6.3 3.4 1.2 70 2.0 ESE 6 11 3 6 1028.4 1028.5 1.2
29/03:00am 5.7 2.2 1.1 72 1.8 SE 9 13 5 7 1028.5 1028.6 1.2
29/02:30am 6.2 1.6 1.3 71 2.0 SSE 15 19 8 10 1028.7 1028.8 1.2
29/02:00am 6.2 1.5 0.9 69 2.1 SSE 15 20 8 11 1028.8 1028.9 1.2
29/01:30am 7.0 2.0 1.5 68 2.2 SSE 17 22 9 12 1028.9 1029.0 1.2
29/01:00am 6.8 3.3 1.3 68 2.2 SE 9 11 5 6 1029.0 1029.1 1.2
29/12:30am 6.5 3.4 1.2 69 2.1 SE 7 11 4 6 1029.0 1029.1 1.2
29/12:00am 6.3 3.8 1.4 71 1.9 SE 4 9 2 5 1028.9 1029.0 1.2
 
Date/Time
EST
Temp
°C
App
Temp
°C
Dew
Point
Rel
Hum
%
Delta-T
°C
Wind Press
QNH
hPa
Press
MSL
hPa
Rain
since 9 am
mm
Dir
 
Spd
km/h
Gust
km/h
Spd
kts
Gust
kts
28/11:30pm 6.7 2.8 1.4 69 2.1 SSE 11 15 6 8 1029.0 1029.1 1.2
28/11:00pm 7.0 1.4 1.3 67 2.3 SSE 20 26 11 14 1029.1 1029.2 1.2
28/10:30pm 6.3 2.1 1.8 73 1.8 SSE 13 17 7 9 1029.0 1029.1 1.2
28/10:00pm 6.9 1.0 2.0 71 2.0 SSE 22 30 12 16 1029.0 1029.1 1.2
28/09:30pm 5.6 1.1 1.9 77 1.5 SSE 15 20 8 11 1028.9 1029.0 1.2
28/09:00pm 5.9 1.3 1.8 75 1.6 SSE 15 19 8 10 1028.8 1028.9 1.2
28/08:30pm 6.6 1.3 2.1 73 1.8 SSE 19 26 10 14 1028.7 1028.8 1.2
28/08:00pm 7.2 2.5 3.3 76 1.6 SSE 17 22 9 12 1028.4 1028.5 1.2
28/07:30pm 7.8 2.8 3.5 74 1.8 SSE 19 24 10 13 1028.2 1028.3 1.2
28/07:00pm 7.9 3.2 3.4 73 1.9 SSE 17 24 9 13 1028.1 1028.2 1.2
28/06:30pm 8.5 4.5 4.9 78 1.6 SE 15 26 8 14 1027.8 1027.9 1.2
28/06:00pm 8.9 4.8 4.5 74 1.9 SSE 15 24 8 13 1027.6 1027.7 1.2
28/05:30pm 9.0 4.0 4.6 74 2.0 SE 20 30 11 16 1027.5 1027.6 1.2
28/05:00pm 9.4 3.4 5.2 75 1.9 SSE 26 35 14 19 1027.1 1027.3 1.2
28/04:30pm 9.9 3.9 5.3 73 2.1 SSE 26 37 14 20 1026.9 1027.1 1.2
28/04:00pm 10.0 3.9 6.5 79 1.6 SSE 28 41 15 22 1026.7 1026.9 1.2
28/03:30pm 10.0 3.8 7.8 86 1.1 SSE 30 37 16 20 1026.6 1026.8 1.2
28/03:00pm 9.7 5.5 9.7 100 0.0 SE 22 30 12 16 1026.6 1026.8 1.2
28/02:58pm 9.5 5.6 9.5 100 0.0 SE 20 28 11 15 1026.6 1026.8 1.2
28/02:49pm 9.3 5.0 9.3 100 0.0 SE 22 30 12 16 1026.7 1026.9 1.2
28/02:30pm 9.3 3.8 9.3 100 0.0 SE 28 43 15 23 1026.7 1026.9 1.0
28/02:12pm 9.7 5.1 9.7 100 0.0 SSE 24 32 13 17 1026.7 1026.9 0.4
28/02:09pm 10.1 5.6 9.9 99 0.1 SSE 24 32 13 17 1026.7 1026.9 0.2
28/02:04pm 10.2 5.3 10.0 99 0.1 SE 26 33 14 18 1026.6 1026.8 0.2
28/02:00pm 10.0 4.7 9.9 99 0.1 SE 28 37 15 20 1026.6 1026.8 0.2
28/01:47pm 10.9 5.3 10.3 96 0.3 S 30 39 16 21 1026.6 1026.8 0.0
28/01:30pm 11.4 7.1 10.9 97 0.3 SW 24 35 13 19 1026.6 1026.8 0.0
28/01:27pm 11.4 8.2 11.2 99 0.1 SW 19 32 10 17 1026.7 1026.9 0.0
28/01:11pm 10.5 6.8 10.3 99 0.1 SW 20 26 11 14 1027.0 1027.2 0.0
28/01:00pm 11.1 7.6 10.9 99 0.1 SW 20 24 11 13 1027.1 1027.3 0.0
28/12:30pm 11.2 6.8 8.8 85 1.2 S 22 28 12 15 1027.5 1027.6 0.0
28/12:15pm 12.0 10.2 10.7 92 0.7 S 11 19 6 10 1027.6 1027.7 0.0
28/12:00pm 10.6 7.5 8.9 89 0.8 S 15 20 8 11 1027.8 1027.9 0.0
28/11:57am 10.9 7.5 9.2 89 0.9 S 17 24 9 13 1027.9 1028.0 0.0
28/11:30am 12.0 7.5 7.1 72 2.4 SSW 20 28 11 15 1027.9 1028.0 0.0
28/11:00am 12.4 10.7 9.8 84 1.3 SSE 9 13 5 7 1027.9 1028.0 0.0
28/10:30am 10.2 6.1 7.8 85 1.2 S 19 32 10 17 1028.2 1028.3 0.0
28/10:00am 10.7 5.7 6.6 76 1.9 S 22 30 12 16 1028.1 1028.2 0.0
28/09:30am 11.2 6.8 6.5 73 2.2 S 19 22 10 12 1027.9 1028.0 0.0
28/09:00am 10.7 7.2 7.2 79 1.7 S 15 22 8 12 1027.9 1028.0 0.2
28/08:30am 9.9 5.6 7.0 82 1.4 SSE 19 24 10 13 1027.7 1027.8 0.2
28/08:00am 9.5 6.2 6.2 80 1.5 SSW 13 15 7 8 1027.3 1027.5 0.2
28/07:30am 9.0 5.8 5.2 77 1.7 SSW 11 15 6 8 1027.2 1027.4 0.2
28/07:00am 9.4 4.4 4.4 71 2.2 S 20 28 11 15 1026.9 1027.1 0.2
28/06:30am 8.8 4.0 4.6 75 1.9 S 19 24 10 13 1026.7 1026.9 0.2
28/06:00am 9.3 3.9 4.3 71 2.2 S 22 30 12 16 1026.6 1026.8 0.2
28/05:30am 9.2 4.6 5.8 79 1.6 SSW 19 24 10 13 1026.2 1026.3 0.2
28/05:00am 8.7 4.7 6.5 86 1.0 S 17 19 9 10 1026.1 1026.2 0.2
28/04:30am 9.1 5.3 7.5 90 0.8 S 17 20 9 11 1026.1 1026.2 0.2
28/04:00am 8.4 5.0 7.8 96 0.3 S 15 19 8 10 1026.0 1026.1 0.2
28/03:30am 8.1 3.8 7.2 94 0.4 S 19 22 10 12 1026.1 1026.2 0.2
28/03:00am 8.8 3.8 8.0 95 0.4 S 24 30 13 16 1026.2 1026.3 0.2
28/02:30am 9.4 5.3 8.8 96 0.3 S 20 30 11 16 1026.3 1026.4 0.2
28/02:00am 9.1 4.9 8.3 95 0.4 S 20 26 11 14 1026.3 1026.4 0.2
28/01:30am 9.4 5.3 8.5 94 0.4 S 20 28 11 15 1026.3 1026.4 0.2
28/01:00am 10.1 5.3 9.0 93 0.5 S 24 30 13 16 1026.2 1026.3 0.2
28/12:30am 10.1 5.8 9.3 95 0.4 S 22 28 12 15 1026.1 1026.2 0.2
28/12:00am 9.9 6.5 9.1 95 0.4 S 17 26 9 14 1025.9 1026.0 0.2
 
Date/Time
EST
Temp
°C
App
Temp
°C
Dew
Point
Rel
Hum
%
Delta-T
°C
Wind Press
QNH
hPa
Press
MSL
hPa
Rain
since 9 am
mm
Dir
 
Spd
km/h
Gust
km/h
Spd
kts
Gust
kts
27/11:30pm 10.1 6.1 9.2 94 0.4 SSE 20 28 11 15 1026.1 1026.2 0.2
27/11:00pm 10.2 6.2 9.1 93 0.5 S 20 30 11 16 1026.1 1026.2 0.0
27/10:30pm 9.9 5.9 8.2 89 0.8 S 19 24 10 13 1026.0 1026.1 0.0
27/10:00pm 10.1 5.8 8.0 87 1.0 S 20 26 11 14 1025.9 1026.0 0.0
27/09:30pm 10.5 6.7 9.1 91 0.7 S 19 26 10 14 1025.9 1026.0 0.0
27/09:00pm 10.8 6.6 9.6 92 0.6 S 22 30 12 16 1025.6 1025.7 0.0
27/08:30pm 10.7 5.9 8.8 88 0.9 S 24 32 13 17 1025.4 1025.5 0.0
27/08:00pm 10.5 6.5 10.3 99 0.1 S 22 28 12 15 1025.0 1025.1 0.0
27/07:42pm 10.1 6.0 10.1 100 0.0 SSE 22 30 12 16 1024.9 1025.0 0.0
27/07:30pm 10.1 5.6 10.1 100 0.0 SSE 24 33 13 18 1024.9 1025.0 0.0
27/07:10pm 10.5 5.3 10.3 99 0.1 SSE 28 37 15 20 1024.6 1024.7 0.0
27/07:00pm 10.9 5.3 10.0 94 0.5 SSE 30 43 16 23 1024.5 1024.6 0.0
27/06:30pm 10.7 5.3 9.6 93 0.6 SSE 28 39 15 21 1024.1 1024.2 0.0
27/06:19pm 11.0 4.9 9.8 92 0.6 S 32 43 17 23 1024.0 1024.1 0.0
27/06:00pm 11.3 4.8 10.4 94 0.5 S 35 43 19 23 1023.6 1023.7 0.0
27/05:30pm 11.6 6.0 11.4 99 0.1 S 32 41 17 22 1023.2 1023.3 0.0
27/05:00pm 11.9 6.7 11.6 98 0.2 S 30 43 16 23 1022.8 1022.9 0.0
27/04:30pm 12.0 6.4 11.5 97 0.3 S 32 43 17 23 1022.3 1022.4 0.0
27/04:00pm 13.2 8.5 12.1 93 0.6 SSW 28 32 15 17 1022.1 1022.2 0.0
27/03:30pm 12.9 8.1 11.6 92 0.7 SSW 28 35 15 19 1021.9 1022.0 0.0
27/03:08pm 12.7 7.7 11.1 90 0.8 SSW 28 35 15 19 1021.8 1021.9 0.0
27/03:00pm 13.0 8.7 12.1 94 0.5 SSW 26 33 14 18 1021.9 1022.0 0.0
27/02:30pm 13.7 9.5 11.2 85 1.3 SSW 24 28 13 15 1022.0 1022.1 0.0
27/02:00pm 13.6 9.4 11.1 85 1.3 SSW 24 30 13 16 1022.0 1022.1 0.0
27/01:30pm 13.5 9.4 11.6 88 1.0 SSW 24 30 13 16 1022.2 1022.3 0.0

Other Formats:

Comma delimited format used in spreadsheet applications
http://www.bom.gov.au/fwo/IDV60801/IDV60801.94837.axf

JavaScript Object Notation format (JSON) in row-major order
http://www.bom.gov.au/fwo/IDV60801/IDV60801.94837.json